Time;durP1;ratioP1;P1;durP2;ratioP2;P2;SDS_P1;SDS_P2;PMS_P1;PMS_P2;Temp;Humidity;BMP_temperature;BMP_pressure;BME280_temperature;BME280_humidity;BME280_pressure;Samples;Min_cycle;Max_cycle;Signal;HPM_P1;HPM_P2
2021/07/19 00:00:45;;;;;;;8.10;4.25;;;;;;;18.95;50.58;101967.03;6153878;28;20234;-53
2021/07/19 00:04:06;;;;;;;13.43;5.28;;;;;;;18.76;51.08;101962.16;6171523;28;20229;-50
2021/07/19 00:07:27;;;;;;;12.55;4.22;;;;;;;19.08;50.65;101971.94;6164604;28;20219;-54
2021/07/19 00:10:50;;;;;;;8.05;4.57;;;;;;;19.25;50.49;101966.22;6154219;28;20223;-52
2021/07/19 00:14:11;;;;;;;12.20;4.65;;;;;;;19.54;49.71;101963.66;6167765;28;20235;-53
2021/07/19 00:17:33;;;;;;;7.35;4.13;;;;;;;19.06;51.09;101962.34;6168187;28;20227;-54
2021/07/19 00:20:54;;;;;;;8.95;4.10;;;;;;;19.08;50.53;101964.00;6168924;28;20235;-53
2021/07/19 00:24:14;;;;;;;10.43;4.00;;;;;;;19.07;51.04;101961.41;6165004;28;20231;-53
2021/07/19 00:27:37;;;;;;;11.23;4.47;;;;;;;19.13;50.99;101961.25;6168155;28;20222;-50
2021/07/19 00:30:58;;;;;;;9.90;4.20;;;;;;;19.11;51.02;101964.84;6157753;28;20242;-50
2021/07/19 00:34:19;;;;;;;8.80;4.05;;;;;;;19.10;50.97;101963.13;6167471;28;20243;-56
2021/07/19 00:37:41;;;;;;;6.47;3.53;;;;;;;18.90;51.75;101959.19;6150031;28;20697;-54
2021/07/19 00:41:02;;;;;;;7.22;4.20;;;;;;;19.07;50.91;101954.34;6162646;28;20250;-52
2021/07/19 00:44:24;;;;;;;10.38;4.93;;;;;;;18.86;51.89;101958.44;6163263;28;20223;-51
2021/07/19 00:47:47;;;;;;;9.38;4.60;;;;;;;18.74;52.09;101953.41;6179607;28;20234;-53
2021/07/19 00:51:09;;;;;;;8.25;3.88;;;;;;;19.05;51.88;101958.81;6162017;28;20241;-52
2021/07/19 00:54:33;;;;;;;8.35;4.95;;;;;;;19.01;51.77;101962.44;6162834;28;20230;-54
2021/07/19 00:57:57;;;;;;;6.43;3.72;;;;;;;19.07;51.67;101958.78;6141135;28;20644;-55
2021/07/19 01:01:21;;;;;;;12.93;5.00;;;;;;;19.19;51.37;101963.75;6166819;28;20456;-52
2021/07/19 01:04:42;;;;;;;8.77;4.03;;;;;;;19.23;51.23;101961.84;6166686;28;20230;-54
2021/07/19 01:08:05;;;;;;;6.40;4.20;;;;;;;19.27;50.77;101956.47;6160803;28;20231;-53
2021/07/19 01:11:26;;;;;;;7.50;3.92;;;;;;;19.29;50.77;101961.72;6157507;28;20235;-51
2021/07/19 01:14:47;;;;;;;9.80;3.75;;;;;;;19.19;50.52;101962.84;6154680;28;20524;-53
2021/07/19 01:18:11;;;;;;;8.85;4.30;;;;;;;19.31;50.30;101965.19;6148699;28;20572;-51
2021/07/19 01:22:14;;;;;;;11.10;4.03;;;;;;;19.30;50.53;101963.44;6159379;28;20298;-53
2021/07/19 01:26:02;;;;;;;8.63;4.53;;;;;;;19.25;50.13;101965.31;6161292;28;20231;-51
2021/07/19 01:29:25;;;;;;;6.88;4.15;;;;;;;19.11;50.60;101968.34;6162800;28;20254;-54
2021/07/19 01:32:49;;;;;;;6.15;3.78;;;;;;;19.20;50.08;101968.09;6159856;28;20611;-51
2021/07/19 01:36:12;;;;;;;8.82;4.15;;;;;;;19.15;50.19;101961.22;6155509;28;20297;-52
2021/07/19 01:39:54;;;;;;;9.95;3.72;;;;;;;19.22;49.61;101961.00;6154565;28;20234;-55
2021/07/19 01:43:17;;;;;;;9.07;4.45;;;;;;;19.41;49.67;101963.16;6159244;28;20607;-53
2021/07/19 01:46:42;;;;;;;7.22;2.97;;;;;;;19.05;50.13;101965.88;6162647;28;20230;-53
2021/07/19 01:50:05;;;;;;;6.85;3.60;;;;;;;19.29;49.52;101964.34;6156593;28;20825;-55
2021/07/19 01:53:46;;;;;;;5.13;3.95;;;;;;;19.27;48.86;101964.41;6159577;28;20239;-54
2021/07/19 01:57:08;;;;;;;7.65;3.10;;;;;;;19.03;49.48;101960.63;6155505;28;20238;-53
2021/07/19 02:00:37;;;;;;;6.88;4.05;;;;;;;19.07;49.36;101959.63;6134183;28;20234;-52
2021/07/19 02:04:04;;;;;;;8.20;3.95;;;;;;;19.28;49.08;101957.31;6161179;28;20238;-53
2021/07/19 02:07:28;;;;;;;7.05;3.58;;;;;;;19.22;49.21;101960.13;6163091;28;20230;-51
2021/07/19 02:10:57;;;;;;;7.60;4.47;;;;;;;19.29;49.48;101953.78;6154792;28;20226;-54
2021/07/19 02:14:21;;;;;;;6.03;3.42;;;;;;;19.29;48.96;101953.78;6143996;28;20230;-52
2021/07/19 02:17:55;;;;;;;6.88;4.53;;;;;;;19.32;48.41;101953.69;6158764;28;20750;-51
2021/07/19 02:21:19;;;;;;;8.35;3.95;;;;;;;19.14;49.12;101957.72;6165426;28;20230;-48
2021/07/19 02:25:13;;;;;;;5.38;3.53;;;;;;;19.22;49.23;101960.13;6147972;28;21196;-55
2021/07/19 02:28:50;;;;;;;11.38;4.25;;;;;;;19.06;49.81;101960.56;6151355;28;20227;-54
2021/07/19 02:32:11;;;;;;;7.70;4.25;;;;;;;18.87;50.52;101961.94;6145696;28;20247;-53
2021/07/19 02:35:33;;;;;;;10.00;4.47;;;;;;;19.06;50.32;101955.28;6157284;28;20321;-56
2021/07/19 02:38:57;;;;;;;7.88;3.97;;;;;;;19.32;49.77;101956.34;6155945;28;20325;-53
2021/07/19 02:42:20;;;;;;;10.15;4.15;;;;;;;19.19;50.41;101961.09;6149327;28;20547;-53
2021/07/19 02:45:43;;;;;;;8.02;3.75;;;;;;;19.17;50.15;101968.16;6160034;28;20476;-53
2021/07/19 02:49:10;;;;;;;8.25;3.88;;;;;;;18.97;50.39;101971.34;6148442;28;20824;-51
2021/07/19 02:52:32;;;;;;;9.93;4.38;;;;;;;18.99;50.23;101960.75;6147988;28;20230;-53
2021/07/19 02:55:56;;;;;;;9.10;5.18;;;;;;;18.95;50.11;101961.75;6154760;28;20262;-53
2021/07/19 02:59:19;;;;;;;6.32;4.43;;;;;;;18.99;49.95;101953.69;6159390;28;20239;-49
2021/07/19 03:02:48;;;;;;;8.68;4.40;;;;;;;19.05;49.55;101948.25;6152217;28;20258;-52
2021/07/19 03:06:16;;;;;;;9.38;5.10;;;;;;;19.13;48.80;101952.47;6160050;28;20317;-51
2021/07/19 03:09:39;;;;;;;11.02;5.03;;;;;;;18.90;49.08;101946.00;6157228;28;20242;-49
2021/07/19 03:13:07;;;;;;;7.63;4.53;;;;;;;19.04;49.25;101949.16;6163077;28;20246;-49
2021/07/19 03:16:29;;;;;;;8.23;5.82;;;;;;;19.07;48.25;101956.97;6156361;28;20666;-50
2021/07/19 03:19:55;;;;;;;8.23;5.55;;;;;;;19.12;48.54;101948.09;6155104;28;20243;-55
2021/07/19 03:23:22;;;;;;;6.85;5.38;;;;;;;19.17;47.77;101951.47;6157556;28;20250;-52
2021/07/19 03:26:45;;;;;;;8.27;5.60;;;;;;;19.25;47.66;101954.75;6150946;28;20230;-53
2021/07/19 03:30:09;;;;;;;8.18;3.97;;;;;;;18.86;48.06;101957.56;6163150;28;20230;-52
2021/07/19 03:33:41;;;;;;;6.93;4.68;;;;;;;19.01;48.26;101959.78;6153565;28;20226;-54
2021/07/19 03:37:04;;;;;;;9.63;5.47;;;;;;;18.74;48.68;101965.75;6156180;28;20251;-55
2021/07/19 03:40:27;;;;;;;5.10;4.50;;;;;;;19.06;48.18;101964.97;6156021;28;20710;-54
2021/07/19 03:43:54;;;;;;;9.30;5.20;;;;;;;18.81;49.22;101964.75;6147459;28;20321;-55
2021/07/19 03:47:17;;;;;;;10.20;6.00;;;;;;;18.91;49.13;101963.59;6153857;28;20243;-50
2021/07/19 03:50:39;;;;;;;11.70;5.75;;;;;;;18.94;49.01;101974.09;6159574;28;20250;-52
2021/07/19 03:54:02;;;;;;;13.13;7.13;;;;;;;18.93;49.32;101964.41;6148385;28;20246;-52
2021/07/19 03:57:26;;;;;;;12.27;6.80;;;;;;;18.76;49.77;101959.53;6156847;28;20238;-52
2021/07/19 04:00:48;;;;;;;11.02;9.95;;;;;;;19.07;49.11;101953.50;6160867;28;20235;-52
2021/07/19 04:04:17;;;;;;;8.45;7.10;;;;;;;19.30;48.77;101966.06;6163504;28;20260;-53
2021/07/19 04:07:49;;;;;;;10.23;6.70;;;;;;;19.32;48.99;101963.41;6167444;28;20230;-50
2021/07/19 04:11:15;;;;;;;7.65;5.18;;;;;;;19.11;48.95;101964.84;6144010;28;22035;-47
2021/07/19 04:14:37;;;;;;;7.38;5.88;;;;;;;19.30;48.31;101955.50;6159149;28;20632;-52
2021/07/19 04:17:58;;;;;;;6.97;5.55;;;;;;;19.28;48.20;101944.13;6152902;28;20346;-50
2021/07/19 04:21:33;;;;;;;6.97;5.70;;;;;;;19.35;47.38;101950.09;6145364;28;20238;-53
2021/07/19 04:24:54;;;;;;;9.65;8.07;;;;;;;19.17;47.74;101940.91;6155748;28;20297;-55
2021/07/19 04:28:18;;;;;;;10.20;7.05;;;;;;;19.46;47.10;101948.91;6158627;28;20230;-52
2021/07/19 04:31:40;;;;;;;7.10;6.43;;;;;;;19.43;46.58;101953.41;6154890;28;20227;-53
2021/07/19 04:35:06;;;;;;;7.72;6.93;;;;;;;19.40;47.28;101958.75;6146474;28;20978;-54
2021/07/19 04:38:30;;;;;;;12.35;9.00;;;;;;;19.08;47.61;101956.09;6162594;28;20234;-49
2021/07/19 04:41:58;;;;;;;7.45;6.32;;;;;;;19.41;47.28;101964.00;6165271;28;20333;-52
2021/07/19 04:45:20;;;;;;;5.32;4.82;;;;;;;19.30;46.19;101960.78;6162674;28;20247;-51
2021/07/19 04:48:41;;;;;;;7.15;5.22;;;;;;;19.14;47.69;101968.28;6158568;28;20238;-53
2021/07/19 04:52:02;;;;;;;6.55;5.55;;;;;;;19.04;48.07;101967.66;6161230;28;20239;-47
2021/07/19 04:55:27;;;;;;;6.20;5.07;;;;;;;19.23;47.98;101975.06;6154586;28;20325;-53
2021/07/19 04:58:51;;;;;;;6.57;5.35;;;;;;;19.11;48.10;101978.91;6164430;28;20644;-53
2021/07/19 05:02:16;;;;;;;8.68;5.75;;;;;;;19.01;48.76;101973.00;6150124;28;20242;-53
2021/07/19 05:05:40;;;;;;;10.68;5.97;;;;;;;19.14;48.29;101978.84;6162880;28;20230;-50
2021/07/19 05:09:02;;;;;;;8.05;5.82;;;;;;;19.33;47.54;101979.22;6161451;28;20243;-52
2021/07/19 05:12:26;;;;;;;5.53;4.55;;;;;;;19.59;47.02;101981.09;6158647;28;20226;-52
2021/07/19 05:15:48;;;;;;;7.07;5.03;;;;;;;19.54;46.98;101984.78;6167255;28;20592;-53
2021/07/19 05:19:10;;;;;;;10.43;5.60;;;;;;;19.18;47.89;101985.75;6155276;28;20326;-54
2021/07/19 05:22:31;;;;;;;7.13;5.30;;;;;;;19.35;47.30;101987.06;6163284;28;20238;-50
2021/07/19 05:25:53;;;;;;;7.20;6.50;;;;;;;19.31;47.98;101994.22;6160198;28;20234;-49
2021/07/19 05:29:15;;;;;;;6.90;5.43;;;;;;;19.55;47.69;101997.09;6151748;28;20744;-52
2021/07/19 05:32:36;;;;;;;12.85;9.48;;;;;;;19.58;47.29;101991.72;6152662;28;20492;-52
2021/07/19 05:35:57;;;;;;;7.93;5.25;;;;;;;19.57;46.44;101984.72;6153362;28;20222;-48
2021/07/19 05:39:19;;;;;;;7.82;7.03;;;;;;;19.96;46.33;101981.84;6146675;28;20235;-70
2021/07/19 05:42:41;;;;;;;25.13;22.70;;;;;;;19.92;46.14;101983.72;6160079;28;20235;-71
2021/07/19 05:46:03;;;;;;;12.30;10.23;;;;;;;20.02;46.62;101979.88;6159512;28;20234;-70
2021/07/19 05:49:24;;;;;;;7.43;6.35;;;;;;;20.03;46.20;101994.00;6164460;28;20655;-67
2021/07/19 05:52:45;;;;;;;6.50;5.90;;;;;;;19.77;46.61;101989.44;6159649;28;20235;-68
2021/07/19 05:56:06;;;;;;;8.25;6.13;;;;;;;20.08;46.78;101999.97;6154863;28;20234;-69
2021/07/19 05:59:27;;;;;;;7.55;5.57;;;;;;;20.17;46.77;101999.72;6158928;28;20266;-67
2021/07/19 06:02:49;;;;;;;6.80;5.00;;;;;;;19.79;46.93;102003.50;6156712;28;20242;-68
2021/07/19 06:06:11;;;;;;;7.68;5.65;;;;;;;20.23;46.59;102004.81;6163856;28;21431;-66
2021/07/19 06:09:32;;;;;;;7.35;5.43;;;;;;;20.08;46.43;102004.41;6162435;28;20234;-67
2021/07/19 06:12:53;;;;;;;7.53;6.07;;;;;;;19.97;46.69;101997.69;6158204;28;20231;-68
2021/07/19 06:16:14;;;;;;;7.68;5.85;;;;;;;20.13;45.28;102003.38;6151869;28;20519;-70
2021/07/19 06:19:37;;;;;;;5.88;4.85;;;;;;;20.12;45.45;102001.63;6160726;28;20277;-69
2021/07/19 06:23:01;;;;;;;7.45;6.03;;;;;;;20.15;45.01;102005.97;6162756;28;20238;-68
2021/07/19 06:26:23;;;;;;;7.05;5.47;;;;;;;20.39;44.79;102009.63;6159670;28;20361;-68
2021/07/19 06:29:43;;;;;;;6.85;5.82;;;;;;;20.60;44.57;102014.25;6160783;28;20238;-68
2021/07/19 06:33:05;;;;;;;6.03;5.25;;;;;;;20.60;44.49;102008.97;6149644;28;20612;-67
2021/07/19 06:36:27;;;;;;;6.05;5.43;;;;;;;20.73;45.30;102013.88;6151936;28;20619;-68
2021/07/19 06:39:48;;;;;;;6.53;5.93;;;;;;;20.62;44.26;102017.72;6154594;28;20246;-69
2021/07/19 06:43:09;;;;;;;6.88;6.18;;;;;;;20.72;44.10;102017.44;6159089;28;20266;-69
2021/07/19 06:46:31;;;;;;;8.55;7.65;;;;;;;20.71;44.71;102021.88;6165398;28;22742;-67
2021/07/19 06:49:51;;;;;;;5.45;4.95;;;;;;;20.91;43.37;102031.78;6158308;28;20566;-67
2021/07/19 06:53:14;;;;;;;6.53;5.70;;;;;;;20.42;43.07;102020.13;6155756;28;20242;-66
2021/07/19 06:56:34;;;;;;;7.78;5.03;;;;;;;20.89;42.04;102023.03;6160656;28;20235;-67
2021/07/19 06:59:56;;;;;;;6.18;4.65;;;;;;;21.12;41.31;102016.97;6159163;28;20238;-66
2021/07/19 07:03:16;;;;;;;6.57;5.88;;;;;;;21.09;41.13;102029.44;6159536;28;20227;-69
2021/07/19 07:06:37;;;;;;;8.25;4.72;;;;;;;21.29;40.26;102024.34;6154000;28;20230;-68
2021/07/19 07:10:00;;;;;;;6.88;4.70;;;;;;;21.26;40.53;102023.56;6156169;28;20617;-67
2021/07/19 07:13:21;;;;;;;6.68;5.00;;;;;;;21.31;40.93;102033.09;6151313;28;20234;-68
2021/07/19 07:16:42;;;;;;;8.18;5.28;;;;;;;21.55;40.86;102026.09;6145767;28;20230;-68
2021/07/19 07:20:04;;;;;;;8.32;7.53;;;;;;;21.40;41.79;102030.13;6145405;28;20235;-67
2021/07/19 07:23:25;;;;;;;6.47;5.90;;;;;;;21.83;40.07;102036.56;6159354;28;20226;-68
2021/07/19 07:26:47;;;;;;;6.68;5.50;;;;;;;21.72;40.66;102030.78;6158893;28;21516;-69
2021/07/19 07:30:10;;;;;;;8.60;5.40;;;;;;;21.34;40.34;102027.66;6162760;28;20234;-69
2021/07/19 07:33:31;;;;;;;5.10;4.55;;;;;;;21.70;40.31;102026.47;6157269;28;20246;-68
2021/07/19 07:36:52;;;;;;;5.40;4.10;;;;;;;21.75;40.85;102022.72;6155321;28;20242;-68
2021/07/19 07:40:15;;;;;;;5.72;4.18;;;;;;;21.52;40.76;102027.97;6153015;28;21600;-67
2021/07/19 07:43:37;;;;;;;5.82;5.32;;;;;;;21.45;40.75;102031.78;6150931;28;20231;-67
2021/07/19 07:46:58;;;;;;;5.18;4.75;;;;;;;21.80;40.54;102038.44;6145277;28;20238;-66
2021/07/19 07:50:19;;;;;;;5.72;5.18;;;;;;;21.52;40.28;102025.31;6145919;28;20560;-53
2021/07/19 07:53:41;;;;;;;5.05;3.50;;;;;;;21.53;40.21;102033.22;6133314;28;20246;-48
2021/07/19 07:57:03;;;;;;;5.45;4.10;;;;;;;21.61;40.14;102031.16;6146602;28;20329;-54
2021/07/19 08:00:25;;;;;;;5.65;4.50;;;;;;;21.70;40.48;102024.66;6145178;28;20226;-50
2021/07/19 08:03:46;;;;;;;6.05;4.03;;;;;;;21.92;39.64;102031.81;6150557;28;20250;-50
2021/07/19 08:07:07;;;;;;;7.95;6.18;;;;;;;21.42;40.23;102028.28;6145012;28;20242;-54
2021/07/19 08:10:28;;;;;;;6.22;3.45;;;;;;;21.01;40.11;102022.66;6134543;28;20691;-51
2021/07/19 08:13:49;;;;;;;4.68;3.65;;;;;;;20.98;39.91;102022.75;6140754;28;20235;-49
2021/07/19 08:17:11;;;;;;;5.28;3.97;;;;;;;21.57;38.99;102026.03;6145102;28;20617;-52
2021/07/19 08:20:33;;;;;;;4.38;3.72;;;;;;;21.80;39.39;102030.50;6141488;28;20636;-49
2021/07/19 08:23:54;;;;;;;7.80;3.28;;;;;;;21.19;39.94;102022.91;6141591;28;20239;-51
2021/07/19 08:27:15;;;;;;;5.05;3.78;;;;;;;21.09;39.66;102032.09;6154486;28;20613;-52
2021/07/19 08:30:36;;;;;;;4.35;3.53;;;;;;;21.29;39.41;102024.34;6141184;28;20230;-53
2021/07/19 08:34:00;;;;;;;4.53;3.55;;;;;;;21.02;39.39;102024.38;6133821;28;20604;-53
2021/07/19 08:37:21;;;;;;;8.55;3.53;;;;;;;21.35;39.71;102024.13;6157041;28;20239;-52
2021/07/19 08:40:44;;;;;;;5.75;4.20;;;;;;;21.52;40.01;102030.63;6146286;28;20247;-52
2021/07/19 08:44:07;;;;;;;6.35;3.83;;;;;;;21.90;39.63;102026.56;6145088;28;20246;-53
2021/07/19 08:47:28;;;;;;;5.07;3.47;;;;;;;21.99;38.87;102020.06;6146682;28;20239;-51
2021/07/19 08:50:51;;;;;;;4.40;3.22;;;;;;;22.16;37.95;102022.94;6142999;28;20262;-51
2021/07/19 08:54:13;;;;;;;2.80;2.45;;;;;;;22.47;36.82;102008.50;6145400;28;20266;-51
2021/07/19 08:57:35;;;;;;;7.13;2.92;;;;;;;22.48;36.33;101996.94;6146002;28;20234;-52
2021/07/19 09:00:58;;;;;;;3.13;2.83;;;;;;;22.59;36.34;102002.69;6152961;28;20234;-51
2021/07/19 09:04:21;;;;;;;5.38;2.97;;;;;;;22.06;36.90;102005.63;6145231;28;20246;-51
2021/07/19 09:07:44;;;;;;;4.75;2.65;;;;;;;22.33;37.26;102014.38;6150956;28;20234;-48
2021/07/19 09:11:09;;;;;;;4.20;2.63;;;;;;;22.27;37.07;102003.97;6148728;28;20243;-50
2021/07/19 09:14:30;;;;;;;2.40;2.03;;;;;;;22.80;36.77;102000.09;6149673;28;20230;-52
2021/07/19 09:17:56;;;;;;;3.40;2.58;;;;;;;22.57;39.00;102001.03;6145392;28;20644;-52
2021/07/19 09:21:30;;;;;;;3.17;1.92;;;;;;;22.62;36.73;101993.72;6140389;28;20565;-54
2021/07/19 09:24:53;;;;;;;4.40;2.80;;;;;;;22.92;35.92;101994.25;6132343;28;20305;-53
2021/07/19 09:28:14;;;;;;;4.85;2.65;;;;;;;23.26;35.48;101995.47;6141591;28;20234;-63
2021/07/19 09:31:37;;;;;;;4.28;3.88;;;;;;;23.14;36.00;101985.38;6140523;28;20709;-64
2021/07/19 09:35:09;;;;;;;4.05;3.38;;;;;;;23.17;35.64;101982.59;6139922;28;20234;-66
2021/07/19 09:38:31;;;;;;;4.78;3.50;;;;;;;23.70;36.00;101984.63;6141797;28;20278;-65
2021/07/19 09:42:05;;;;;;;3.53;2.15;;;;;;;23.02;34.98;101989.41;6139346;28;20235;-64
2021/07/19 09:45:29;;;;;;;3.50;2.10;;;;;;;22.45;35.64;101983.81;6142407;28;20237;-66
2021/07/19 09:48:57;;;;;;;2.70;1.80;;;;;;;22.87;36.04;101982.94;6143939;28;20242;-64
2021/07/19 09:52:18;;;;;;;2.45;2.25;;;;;;;22.81;36.13;101988.53;6149257;28;20238;-64
2021/07/19 09:55:39;;;;;;;6.65;1.77;;;;;;;22.38;37.47;101979.69;6148876;28;20672;-63
2021/07/19 09:59:07;;;;;;;2.30;1.92;;;;;;;22.94;36.43;101983.56;6152029;28;20262;-62
2021/07/19 10:02:36;;;;;;;4.68;1.90;;;;;;;22.86;36.02;101970.59;6151100;28;20262;-65
2021/07/19 10:06:04;;;;;;;5.47;2.47;;;;;;;23.10;36.23;101974.03;6151948;28;20226;-64
2021/07/19 10:09:27;;;;;;;4.75;2.20;;;;;;;22.79;36.13;101972.66;6161593;28;20652;-65
2021/07/19 10:12:58;;;;;;;4.70;3.17;;;;;;;22.45;37.16;101974.97;6158600;28;20880;-64
2021/07/19 10:16:22;;;;;;;5.80;2.15;;;;;;;22.97;36.15;101979.00;6151351;28;20649;-63
2021/07/19 10:19:44;;;;;;;6.10;4.60;;;;;;;23.17;35.97;101971.97;6144612;28;20245;-62
2021/07/19 10:23:07;;;;;;;2.92;2.45;;;;;;;23.38;35.42;101965.72;6157384;28;20518;-63
2021/07/19 10:26:28;;;;;;;3.95;2.47;;;;;;;23.18;36.26;101968.38;6141276;28;20234;-63
2021/07/19 10:29:51;;;;;;;2.17;1.73;;;;;;;22.92;36.98;101967.69;6147795;28;20722;-63
2021/07/19 10:33:13;;;;;;;2.53;2.10;;;;;;;23.44;36.42;101966.34;6150976;28;20235;-63
2021/07/19 10:36:37;;;;;;;3.63;2.30;;;;;;;22.86;36.21;101975.91;6150710;28;21084;-63
2021/07/19 10:40:00;;;;;;;6.38;2.20;;;;;;;23.35;35.65;101971.16;6149964;28;20226;-63
2021/07/19 10:43:20;;;;;;;3.75;2.33;;;;;;;22.31;36.89;101973.72;6145969;28;20231;-63
2021/07/19 10:46:42;;;;;;;3.08;2.22;;;;;;;23.27;35.94;101967.97;6135924;28;20231;-61
2021/07/19 10:50:07;;;;;;;4.30;2.72;;;;;;;22.98;36.54;101964.75;6147767;28;20231;-63
2021/07/19 10:53:29;;;;;;;2.03;1.92;;;;;;;23.52;35.89;101961.56;6146325;28;20238;-63
2021/07/19 10:56:54;;;;;;;4.30;2.55;;;;;;;22.66;36.63;101965.25;6147722;28;20613;-62
2021/07/19 11:00:19;;;;;;;3.67;1.98;;;;;;;23.17;35.97;101964.88;6137039;28;20334;-64
2021/07/19 11:03:40;;;;;;;2.53;2.13;;;;;;;24.25;35.38;101959.06;6143082;28;20238;-64
2021/07/19 11:07:11;;;;;;;4.65;2.25;;;;;;;24.66;34.41;101949.06;6137738;28;20234;-63
2021/07/19 11:10:45;;;;;;;4.15;2.20;;;;;;;24.72;34.22;101954.06;6144420;28;21886;-63
2021/07/19 11:14:08;;;;;;;2.38;2.03;;;;;;;24.71;34.59;101952.34;6144038;28;20234;-61
2021/07/19 11:17:29;;;;;;;4.82;2.45;;;;;;;23.36;36.91;101953.41;6142679;28;20234;-63
2021/07/19 11:20:51;;;;;;;3.80;2.33;;;;;;;22.90;38.48;101950.94;6151207;28;20235;-61
2021/07/19 11:24:17;;;;;;;5.65;2.95;;;;;;;22.66;38.98;101951.97;6148700;28;20242;-61
2021/07/19 11:27:41;;;;;;;3.85;2.83;;;;;;;22.46;40.13;101955.47;6145058;28;20687;-61
2021/07/19 11:31:09;;;;;;;4.35;2.95;;;;;;;22.53;40.07;101956.97;6137644;28;20231;-61
2021/07/19 11:34:34;;;;;;;4.05;2.33;;;;;;;22.23;40.95;101957.22;6140854;28;20601;-62
2021/07/19 11:37:59;;;;;;;2.65;2.20;;;;;;;22.81;39.79;101964.63;6150793;28;20242;-62
2021/07/19 11:41:25;;;;;;;5.65;2.60;;;;;;;22.05;41.10;101958.84;6139355;28;20246;-60
2021/07/19 11:44:46;;;;;;;8.00;3.25;;;;;;;22.63;40.47;101971.56;6144714;28;20242;-64
2021/07/19 11:48:08;;;;;;;5.20;2.97;;;;;;;22.49;41.00;101968.59;6146588;28;20227;-62
2021/07/19 11:51:30;;;;;;;4.25;2.60;;;;;;;22.72;40.25;101971.19;6147459;28;20227;-63
2021/07/19 11:54:51;;;;;;;4.45;3.03;;;;;;;22.91;40.02;101967.75;6146916;28;20236;-63
2021/07/19 11:58:15;;;;;;;4.05;3.20;;;;;;;22.79;39.85;101958.50;6150653;28;20250;-63
2021/07/19 12:01:37;;;;;;;4.72;2.72;;;;;;;22.77;40.00;101947.09;6148423;28;20226;-65
2021/07/19 12:04:58;;;;;;;4.25;3.75;;;;;;;23.36;39.42;101953.41;6149657;28;21096;-63
2021/07/19 12:08:25;;;;;;;5.70;2.63;;;;;;;23.52;37.96;101945.63;6151004;28;20241;-63
2021/07/19 12:11:53;;;;;;;3.28;2.58;;;;;;;23.50;37.76;101961.63;6145219;28;21526;-62
2021/07/19 12:15:17;;;;;;;6.07;3.20;;;;;;;23.68;37.43;101948.44;6149793;28;20628;-62
2021/07/19 12:18:41;;;;;;;3.47;2.45;;;;;;;23.81;36.95;101940.75;6148996;28;20235;-62
2021/07/19 12:22:03;;;;;;;4.00;2.90;;;;;;;24.47;36.06;101941.09;6148334;28;20273;-61
2021/07/19 12:25:24;;;;;;;4.35;2.22;;;;;;;24.64;34.90;101942.06;6139926;28;20238;-52
2021/07/19 12:28:56;;;;;;;4.75;3.10;;;;;;;24.17;35.19;101927.50;6150577;28;20230;-54
2021/07/19 12:32:19;;;;;;;3.03;2.42;;;;;;;24.70;35.11;101933.78;6147164;28;20246;-49
2021/07/19 12:35:40;;;;;;;5.38;2.50;;;;;;;24.63;34.10;101929.72;6147535;28;20238;-50
2021/07/19 12:39:06;;;;;;;3.03;2.10;;;;;;;25.13;33.45;101926.22;6134334;28;20323;-51
2021/07/19 12:42:28;;;;;;;4.20;2.78;;;;;;;25.08;33.75;101933.59;6151855;28;20422;-53
2021/07/19 12:45:50;;;;;;;3.67;2.40;;;;;;;24.67;34.17;101918.81;6153006;28;20323;-54
2021/07/19 12:49:13;;;;;;;3.55;2.50;;;;;;;24.83;34.22;101936.66;6155231;28;20242;-53
2021/07/19 12:52:35;;;;;;;2.40;2.20;;;;;;;24.63;34.58;101927.03;6155092;28;20238;-50
2021/07/19 12:56:07;;;;;;;3.03;2.15;;;;;;;25.02;34.16;101933.91;6152707;28;20302;-48
2021/07/19 12:59:28;;;;;;;4.90;2.70;;;;;;;24.38;35.01;101930.91;6154959;28;20324;-52
2021/07/19 13:03:00;;;;;;;3.33;2.38;;;;;;;24.10;35.68;101929.59;6156464;28;20755;-54
2021/07/19 13:06:26;;;;;;;2.60;2.40;;;;;;;23.91;37.11;101918.13;6155992;28;20226;-46
2021/07/19 13:09:55;;;;;;;5.93;3.33;;;;;;;23.57;37.64;101931.19;6150566;28;20231;-48
2021/07/19 13:13:23;;;;;;;4.82;2.35;;;;;;;23.24;38.99;101922.94;6149262;28;20270;-49
2021/07/19 13:16:55;;;;;;;4.43;3.42;;;;;;;23.48;38.58;101926.28;6166781;28;20269;-46
2021/07/19 13:20:17;;;;;;;4.15;2.95;;;;;;;23.54;38.05;101927.81;6157020;28;20258;-48
2021/07/19 13:23:42;;;;;;;6.50;5.90;;;;;;;23.51;38.40;101922.59;6158573;28;20854;-49
2021/07/19 13:27:04;;;;;;;5.05;4.55;;;;;;;23.58;37.96;101922.25;6157098;28;20518;-50
2021/07/19 13:30:30;;;;;;;4.57;3.40;;;;;;;23.71;37.53;101925.22;6147410;28;20234;-54
2021/07/19 13:33:50;;;;;;;4.18;3.15;;;;;;;23.63;36.21;101922.03;6154179;28;20223;-51
2021/07/19 13:37:12;;;;;;;4.53;3.05;;;;;;;23.70;37.02;101915.50;6145508;28;20541;-54
2021/07/19 13:40:42;;;;;;;3.38;2.95;;;;;;;23.64;36.88;101915.78;6161070;28;20230;-47
2021/07/19 13:44:04;;;;;;;4.97;2.85;;;;;;;23.23;38.28;101928.34;6157587;28;20440;-53
2021/07/19 13:47:25;;;;;;;3.83;3.35;;;;;;;23.41;37.93;101929.28;6156181;28;20695;-53
2021/07/19 13:50:46;;;;;;;4.57;3.40;;;;;;;23.03;39.63;101939.81;6160099;28;20705;-54
2021/07/19 13:54:07;;;;;;;4.00;2.63;;;;;;;23.15;38.21;101928.69;6156642;28;20215;-49
2021/07/19 13:57:29;;;;;;;4.45;2.88;;;;;;;23.11;38.80;101937.69;6157984;28;20242;-49
2021/07/19 14:00:50;;;;;;;4.57;3.42;;;;;;;23.12;38.52;101934.09;6152926;28;20238;-52
2021/07/19 14:04:11;;;;;;;4.50;3.30;;;;;;;23.40;38.26;101925.78;6158264;28;20665;-50
2021/07/19 14:07:32;;;;;;;4.13;3.75;;;;;;;23.23;38.94;101918.56;6159518;28;20310;-50
2021/07/19 14:10:56;;;;;;;5.50;3.70;;;;;;;22.94;40.35;101926.00;6153788;28;20223;-51
2021/07/19 14:14:18;;;;;;;4.35;3.38;;;;;;;22.86;41.40;101925.47;6155461;28;20262;-50
2021/07/19 14:17:39;;;;;;;3.85;3.40;;;;;;;22.52;41.61;101918.91;6145525;28;20612;-47
2021/07/19 14:21:00;;;;;;;6.22;3.70;;;;;;;22.26;41.99;101927.13;6145765;28;20531;-50
2021/07/19 14:24:23;;;;;;;4.55;3.03;;;;;;;22.04;42.27;101927.91;6146192;28;20562;-50
2021/07/19 14:27:44;;;;;;;5.00;3.03;;;;;;;22.46;41.50;101927.13;6161400;28;20222;-50
2021/07/19 14:31:06;;;;;;;5.30;3.10;;;;;;;21.51;43.31;101922.91;6149231;28;20596;-49
2021/07/19 14:34:28;;;;;;;3.20;2.70;;;;;;;21.53;43.23;101931.66;6157663;28;20235;-50
2021/07/19 14:37:49;;;;;;;4.53;3.35;;;;;;;21.48;43.60;101933.59;6156633;28;20226;-51
2021/07/19 14:41:10;;;;;;;4.32;3.08;;;;;;;20.93;44.92;101936.44;6157983;28;20282;-53
2021/07/19 14:44:31;;;;;;;4.53;3.08;;;;;;;21.23;44.39;101935.34;6161783;28;20635;-54
2021/07/19 14:47:53;;;;;;;11.18;6.90;;;;;;;21.34;44.37;101927.00;6161158;28;20230;-48
2021/07/19 14:51:14;;;;;;;7.57;4.03;;;;;;;21.47;44.16;101924.81;6158980;28;20245;-50
2021/07/19 14:54:35;;;;;;;7.45;3.88;;;;;;;21.21;45.07;101923.94;6164860;28;20583;-54
2021/07/19 14:57:56;;;;;;;10.05;3.15;;;;;;;21.06;45.29;101923.63;6159973;28;20605;-51
2021/07/19 15:01:18;;;;;;;4.45;2.65;;;;;;;21.33;44.83;101914.69;6159269;28;20254;-52
2021/07/19 15:04:40;;;;;;;2.92;2.45;;;;;;;21.72;43.44;101915.94;6155856;28;20238;-48
2021/07/19 15:08:01;;;;;;;3.95;3.58;;;;;;;21.53;43.05;101906.00;6145349;28;20590;-51
2021/07/19 15:11:22;;;;;;;3.38;2.78;;;;;;;21.76;43.09;101907.78;6159745;28;20238;-51
2021/07/19 15:14:43;;;;;;;6.55;2.28;;;;;;;21.41;43.02;101906.44;6163915;28;20218;-52
2021/07/19 15:18:04;;;;;;;5.03;3.25;;;;;;;21.36;43.16;101901.31;6154212;28;20230;-50
2021/07/19 15:21:26;;;;;;;3.97;3.20;;;;;;;21.74;42.68;101909.63;6160613;28;20613;-49
2021/07/19 15:24:47;;;;;;;2.53;2.30;;;;;;;21.83;42.55;101901.34;6157711;28;20262;-51
2021/07/19 15:28:08;;;;;;;8.82;3.30;;;;;;;21.75;42.67;101903.44;6159666;28;20242;-49
2021/07/19 15:31:30;;;;;;;4.22;2.50;;;;;;;21.69;42.93;101897.47;6161283;28;20235;-49
2021/07/19 15:34:50;;;;;;;5.35;2.63;;;;;;;21.58;42.67;101897.91;6162358;28;20227;-51
2021/07/19 15:38:13;;;;;;;4.05;3.03;;;;;;;21.93;42.19;101898.31;6155655;28;20627;-49
2021/07/19 15:41:35;;;;;;;2.55;2.20;;;;;;;21.85;41.67;101895.09;6151424;28;20242;-47
2021/07/19 15:44:56;;;;;;;4.45;3.03;;;;;;;21.94;41.93;101892.09;6157629;28;20238;-50